Time;durP1;ratioP1;P1;durP2;ratioP2;P2;SDS_P1;SDS_P2;PMS_P1;PMS_P2;Temp;Humidity;BMP_temperature;BMP_pressure;BME280_temperature;BME280_humidity;BME280_pressure;Samples;Min_cycle;Max_cycle;Signal;HPM_P1;HPM_P2
2023/03/20 00:00:57;;;;;;;17.65;11.63;;;6.50;99.90;;;;;;5053225;28;20181;-58
2023/03/20 00:03:22;;;;;;;14.45;12.70;;;6.50;99.90;;;;;;5053043;28;20265;-59
2023/03/20 00:05:50;;;;;;;15.95;12.65;;;6.50;99.90;;;;;;5052926;28;20572;-58
2023/03/20 00:08:16;;;;;;;13.85;11.20;;;6.50;99.90;;;;;;5052873;28;20187;-58
2023/03/20 00:10:45;;;;;;;14.20;12.70;;;6.60;99.90;;;;;;5053165;28;20179;-58
2023/03/20 00:13:17;;;;;;;15.02;12.05;;;6.60;99.90;;;;;;5051800;28;20196;-58
2023/03/20 00:15:44;;;;;;;16.10;11.95;;;6.60;99.90;;;;;;5052939;28;20175;-58
2023/03/20 00:18:22;;;;;;;14.63;11.18;;;6.50;99.90;;;;;;5052958;28;20174;-58
2023/03/20 00:20:50;;;;;;;14.20;12.70;;;6.50;99.90;;;;;;5053315;28;20244;-58
2023/03/20 00:23:17;;;;;;;14.85;11.73;;;6.50;99.90;;;;;;5055962;28;20238;-58
2023/03/20 00:25:44;;;;;;;15.10;13.02;;;6.50;99.90;;;;;;5057016;28;20206;-58
2023/03/20 00:28:39;;;;;;;15.52;13.30;;;6.40;99.90;;;;;;5056965;28;20182;-58
2023/03/20 00:31:19;;;;;;;14.35;11.45;;;6.40;99.90;;;;;;5056739;28;20183;-58
2023/03/20 00:33:45;;;;;;;15.38;12.73;;;6.30;99.90;;;;;;5057246;28;20185;-58
2023/03/20 00:36:10;;;;;;;16.70;11.40;;;6.30;99.90;;;;;;5056870;28;20185;-58
2023/03/20 00:38:36;;;;;;;14.15;12.05;;;6.30;99.90;;;;;;5056795;28;20269;-58
2023/03/20 00:41:04;;;;;;;14.23;11.65;;;6.40;99.90;;;;;;5056768;28;20179;-59
2023/03/20 00:43:30;;;;;;;17.60;11.48;;;6.40;99.90;;;;;;5056573;28;20178;-58
2023/03/20 00:45:56;;;;;;;14.70;11.52;;;6.40;99.90;;;;;;5056707;28;20200;-58
2023/03/20 00:48:22;;;;;;;16.52;11.75;;;6.40;99.90;;;;;;5056947;28;20217;-58
2023/03/20 00:50:48;;;;;;;14.60;11.75;;;6.40;99.90;;;;;;5056613;28;20232;-58
2023/03/20 00:53:14;;;;;;;14.63;12.38;;;6.40;99.90;;;;;;5056515;28;20253;-59
2023/03/20 00:55:40;;;;;;;16.45;11.88;;;6.40;99.90;;;;;;5056375;28;20656;-59
2023/03/20 00:58:06;;;;;;;15.00;11.88;;;6.40;99.90;;;;;;5056275;28;20282;-58
2023/03/20 01:00:43;;;;;;;14.40;11.60;;;6.50;99.90;;;;;;5056500;28;20194;-58
2023/03/20 01:03:16;;;;;;;14.68;10.80;;;6.50;99.90;;;;;;5055237;28;20249;-58
2023/03/20 01:05:42;;;;;;;16.33;13.40;;;6.40;99.90;;;;;;5056151;28;20268;-58
2023/03/20 01:08:18;;;;;;;14.85;10.82;;;6.40;99.90;;;;;;5056189;28;20189;-58
2023/03/20 01:10:45;;;;;;;21.25;12.15;;;6.40;99.90;;;;;;5056072;28;20162;-59
2023/03/20 01:13:26;;;;;;;17.20;13.60;;;6.50;99.90;;;;;;5056189;28;20270;-58
2023/03/20 01:15:52;;;;;;;15.63;12.15;;;6.40;99.90;;;;;;5056160;28;20196;-58
2023/03/20 01:18:20;;;;;;;13.77;12.32;;;6.40;99.90;;;;;;5056064;28;20194;-58
2023/03/20 01:20:46;;;;;;;16.77;11.90;;;6.50;99.90;;;;;;5055879;28;20178;-58
2023/03/20 01:23:13;;;;;;;15.07;12.75;;;6.60;99.90;;;;;;5055795;28;20233;-58
2023/03/20 01:25:39;;;;;;;15.68;12.98;;;6.60;99.90;;;;;;5054741;28;20172;-58
2023/03/20 01:28:17;;;;;;;16.63;13.80;;;6.70;99.90;;;;;;5055830;28;20182;-58
2023/03/20 01:30:44;;;;;;;18.42;13.00;;;6.80;99.90;;;;;;5055785;28;20213;-59
2023/03/20 01:33:15;;;;;;;16.48;14.43;;;6.80;99.90;;;;;;5055518;28;20175;-58
2023/03/20 01:35:41;;;;;;;19.38;13.45;;;6.90;99.90;;;;;;5055507;28;20274;-58
2023/03/20 01:38:26;;;;;;;18.15;14.75;;;6.80;99.90;;;;;;5055839;28;20182;-58
2023/03/20 01:41:04;;;;;;;15.57;12.00;;;6.70;99.90;;;;;;5055463;28;20573;-58
2023/03/20 01:43:31;;;;;;;15.82;13.75;;;6.70;99.90;;;;;;5055588;28;20199;-58
2023/03/20 01:46:24;;;;;;;16.98;13.32;;;6.60;99.90;;;;;;5055300;28;20216;-58
2023/03/20 01:48:49;;;;;;;18.52;12.50;;;6.60;99.90;;;;;;5054812;28;20190;-59
2023/03/20 01:51:23;;;;;;;17.48;11.93;;;6.70;99.90;;;;;;5055306;28;20636;-59
2023/03/20 01:53:54;;;;;;;18.42;13.05;;;6.70;99.90;;;;;;5055467;28;20498;-59
2023/03/20 01:56:20;;;;;;;15.73;12.13;;;6.70;99.90;;;;;;5055258;28;20213;-59
2023/03/20 01:58:51;;;;;;;18.75;12.50;;;6.60;99.90;;;;;;5055148;28;20213;-58
2023/03/20 02:01:17;;;;;;;17.15;12.85;;;6.70;99.90;;;;;;5055381;28;20225;-59
2023/03/20 02:03:47;;;;;;;17.20;13.52;;;6.70;99.90;;;;;;5055273;28;20258;-59
2023/03/20 02:06:12;;;;;;;18.20;13.00;;;6.80;99.90;;;;;;5054935;28;20210;-60
2023/03/20 02:08:46;;;;;;;18.65;12.85;;;6.80;99.90;;;;;;5055122;28;20182;-59
2023/03/20 02:11:12;;;;;;;14.65;12.82;;;6.80;99.90;;;;;;5054957;28;20179;-58
2023/03/20 02:13:39;;;;;;;17.45;12.23;;;6.80;99.90;;;;;;5055113;28;20176;-59
2023/03/20 02:16:10;;;;;;;16.70;13.90;;;6.70;99.90;;;;;;5055039;28;20171;-58
2023/03/20 02:18:37;;;;;;;17.20;12.15;;;6.80;99.90;;;;;;5054871;28;20635;-58
2023/03/20 02:21:40;;;;;;;16.73;13.38;;;6.70;99.90;;;;;;5054859;28;20189;-59
2023/03/20 02:24:28;;;;;;;18.73;12.60;;;6.70;99.90;;;;;;5054559;28;20246;-58
2023/03/20 02:27:20;;;;;;;16.42;12.07;;;6.70;99.90;;;;;;5054671;28;20228;-58
2023/03/20 02:30:11;;;;;;;16.30;13.07;;;6.60;99.90;;;;;;5054658;28;20240;-58
2023/03/20 02:32:42;;;;;;;18.17;12.75;;;6.60;99.90;;;;;;5054792;28;20583;-58
2023/03/20 02:35:46;;;;;;;16.15;13.00;;;6.60;99.90;;;;;;5053378;28;20202;-58
2023/03/20 02:38:18;;;;;;;17.02;12.63;;;6.70;99.90;;;;;;5054319;28;20188;-58
2023/03/20 02:40:51;;;;;;;15.27;13.20;;;6.60;99.90;;;;;;5054698;28;20178;-58
2023/03/20 02:43:45;;;;;;;19.42;13.23;;;6.60;99.90;;;;;;5054647;28;20701;-58
2023/03/20 02:46:14;;;;;;;17.23;12.70;;;6.50;99.90;;;;;;5053601;28;20785;-58
2023/03/20 02:49:00;;;;;;;17.83;13.73;;;6.60;99.90;;;;;;5054217;28;20183;-58
2023/03/20 02:51:29;;;;;;;17.15;13.35;;;6.60;99.90;;;;;;5053740;28;20571;-59
2023/03/20 02:54:19;;;;;;;15.30;12.77;;;6.60;99.90;;;;;;5054264;28;20535;-59
2023/03/20 02:56:50;;;;;;;21.27;15.40;;;6.60;99.90;;;;;;5054169;28;20213;-58
2023/03/20 02:59:23;;;;;;;18.13;13.77;;;6.60;99.90;;;;;;5053991;28;20183;-58
2023/03/20 03:01:55;;;;;;;20.17;13.52;;;6.60;99.90;;;;;;5054158;28;20167;-59
2023/03/20 03:04:31;;;;;;;18.38;13.90;;;6.60;99.90;;;;;;5054206;28;20229;-58
2023/03/20 03:06:58;;;;;;;18.60;14.05;;;6.50;99.90;;;;;;5053889;28;20332;-58
2023/03/20 03:09:37;;;;;;;19.75;14.40;;;6.40;99.90;;;;;;5053834;28;20207;-58
2023/03/20 03:12:09;;;;;;;23.38;13.45;;;6.50;99.90;;;;;;5054034;28;20208;-58
2023/03/20 03:14:48;;;;;;;21.75;14.63;;;6.60;99.90;;;;;;5053906;28;20163;-58
2023/03/20 03:17:16;;;;;;;19.65;13.88;;;6.60;99.90;;;;;;5053888;28;20178;-59
2023/03/20 03:19:48;;;;;;;21.77;15.20;;;6.60;99.90;;;;;;5053938;28;20179;-58
2023/03/20 03:22:16;;;;;;;21.38;14.32;;;6.60;99.90;;;;;;5053561;28;20677;-59
2023/03/20 03:24:51;;;;;;;19.80;13.57;;;6.70;99.90;;;;;;5053425;28;20231;-59
2023/03/20 03:27:28;;;;;;;20.83;15.20;;;6.60;99.90;;;;;;5053682;28;20196;-58
2023/03/20 03:30:04;;;;;;;19.08;13.02;;;6.60;99.90;;;;;;5053587;28;20179;-58
2023/03/20 03:32:39;;;;;;;17.60;12.90;;;6.70;99.90;;;;;;5053485;28;20174;-59
2023/03/20 03:35:05;;;;;;;18.98;13.13;;;6.70;99.90;;;;;;5053589;28;20654;-59
2023/03/20 03:37:55;;;;;;;18.15;14.77;;;6.80;99.90;;;;;;5053538;28;20206;-58
2023/03/20 03:40:35;;;;;;;19.85;14.18;;;6.80;99.90;;;;;;5053367;28;20203;-58
2023/03/20 03:43:26;;;;;;;19.88;13.82;;;6.80;99.90;;;;;;5053250;28;20166;-59
2023/03/20 03:46:00;;;;;;;19.98;13.02;;;6.70;99.90;;;;;;5053430;28;20254;-58
2023/03/20 03:48:38;;;;;;;23.80;14.48;;;6.70;99.90;;;;;;5052993;28;20190;-59
2023/03/20 03:51:10;;;;;;;21.30;14.05;;;6.80;99.90;;;;;;5053221;28;20168;-58
2023/03/20 03:53:42;;;;;;;18.77;14.77;;;6.80;99.90;;;;;;5053147;28;20232;-58
2023/03/20 03:56:11;;;;;;;23.10;14.70;;;6.80;99.90;;;;;;5052800;28;20181;-58
2023/03/20 03:58:41;;;;;;;22.20;12.57;;;6.90;99.90;;;;;;5052988;28;20571;-59
2023/03/20 04:01:10;;;;;;;23.35;15.15;;;6.90;99.90;;;;;;5053170;28;20185;-58
2023/03/20 04:03:39;;;;;;;24.15;13.73;;;6.90;99.90;;;;;;5053034;28;20206;-58
2023/03/20 04:06:08;;;;;;;25.27;14.30;;;6.90;99.90;;;;;;5053333;28;20210;-58
2023/03/20 04:08:34;;;;;;;20.48;14.32;;;7.00;99.90;;;;;;5053192;28;20207;-58
2023/03/20 04:11:00;;;;;;;21.25;12.45;;;7.00;99.90;;;;;;5053061;28;20224;-59
2023/03/20 04:13:26;;;;;;;20.52;12.15;;;7.00;99.90;;;;;;5052998;28;20175;-59
2023/03/20 04:15:51;;;;;;;19.92;13.95;;;7.00;99.90;;;;;;5053002;28;20190;-59
2023/03/20 04:18:18;;;;;;;20.45;13.55;;;7.00;99.90;;;;;;5052855;28;20210;-58
2023/03/20 04:20:45;;;;;;;22.40;12.25;;;7.00;99.90;;;;;;5052893;28;20182;-59
2023/03/20 04:23:11;;;;;;;20.33;11.25;;;7.00;99.90;;;;;;5052813;28;20360;-58
2023/03/20 04:25:37;;;;;;;17.92;11.45;;;7.00;99.90;;;;;;5052982;28;20175;-59
2023/03/20 04:28:03;;;;;;;20.73;12.43;;;7.00;99.90;;;;;;5052665;28;20238;-59
2023/03/20 04:30:28;;;;;;;22.08;13.05;;;7.00;99.90;;;;;;5052873;28;20183;-59
2023/03/20 04:32:54;;;;;;;17.30;12.90;;;7.10;99.90;;;;;;5052756;28;20179;-58
2023/03/20 04:35:23;;;;;;;20.05;13.25;;;7.10;99.90;;;;;;5052956;28;20700;-58
2023/03/20 04:37:49;;;;;;;20.15;12.45;;;7.10;99.90;;;;;;5052923;28;20206;-59
2023/03/20 04:40:15;;;;;;;20.50;11.52;;;7.10;99.90;;;;;;5052856;28;20573;-59
2023/03/20 04:42:41;;;;;;;18.75;13.43;;;7.10;99.90;;;;;;5052811;28;20177;-59
2023/03/20 04:45:07;;;;;;;17.17;11.40;;;7.10;99.90;;;;;;5052710;28;20178;-58
2023/03/20 04:47:33;;;;;;;23.85;12.27;;;7.10;99.90;;;;;;5052530;28;20619;-59
2023/03/20 04:49:59;;;;;;;19.50;11.93;;;7.10;99.90;;;;;;5052777;28;20217;-58
2023/03/20 04:52:24;;;;;;;19.35;11.77;;;7.10;99.90;;;;;;5052547;28;20253;-60
2023/03/20 04:54:50;;;;;;;19.30;11.55;;;7.10;99.90;;;;;;5052735;28;20204;-59
2023/03/20 04:57:16;;;;;;;21.60;12.40;;;7.20;99.90;;;;;;5052610;28;20229;-59
2023/03/20 04:59:42;;;;;;;21.27;12.65;;;7.20;99.90;;;;;;5052704;28;20178;-59
2023/03/20 05:02:08;;;;;;;18.80;12.35;;;7.20;99.90;;;;;;5052455;28;20212;-58
2023/03/20 05:04:33;;;;;;;19.75;10.52;;;7.20;99.90;;;;;;5052430;28;20174;-58
2023/03/20 05:07:02;;;;;;;18.60;10.25;;;7.10;99.90;;;;;;5052540;28;20202;-58
2023/03/20 05:09:28;;;;;;;19.23;10.73;;;7.20;99.90;;;;;;5055728;28;20175;-58
2023/03/20 05:11:53;;;;;;;19.73;12.40;;;7.20;99.90;;;;;;5056212;28;20178;-58
2023/03/20 05:14:19;;;;;;;17.17;11.70;;;7.20;99.90;;;;;;5056093;28;20168;-58
2023/03/20 05:16:45;;;;;;;19.40;11.15;;;7.20;99.90;;;;;;5055953;28;20179;-58
2023/03/20 05:19:10;;;;;;;20.63;11.43;;;7.20;99.90;;;;;;5056194;28;20208;-59
2023/03/20 05:21:36;;;;;;;15.27;10.48;;;7.30;99.90;;;;;;5056144;28;20179;-58
2023/03/20 05:24:02;;;;;;;18.75;12.05;;;7.30;99.90;;;;;;5055433;28;20234;-59
2023/03/20 05:26:27;;;;;;;20.65;11.55;;;7.20;99.90;;;;;;5056134;28;20676;-59
2023/03/20 05:28:53;;;;;;;19.48;10.73;;;7.20;99.90;;;;;;5054633;28;20547;-59
2023/03/20 05:31:19;;;;;;;18.13;11.63;;;7.20;99.90;;;;;;5055807;28;20535;-59
2023/03/20 05:33:45;;;;;;;21.77;11.20;;;7.30;99.90;;;;;;5055612;28;20179;-58
2023/03/20 05:36:10;;;;;;;20.05;11.75;;;7.30;99.90;;;;;;5055608;28;20186;-58
2023/03/20 05:38:36;;;;;;;21.08;10.60;;;7.30;99.90;;;;;;5055621;28;20231;-59
2023/03/20 05:41:02;;;;;;;16.63;11.18;;;7.20;99.90;;;;;;5055712;28;20178;-59
2023/03/20 05:43:28;;;;;;;18.30;10.23;;;7.30;99.90;;;;;;5055519;28;20180;-58
2023/03/20 05:45:55;;;;;;;18.58;11.55;;;7.30;99.90;;;;;;5054423;28;20175;-59
2023/03/20 05:48:21;;;;;;;20.42;11.35;;;7.30;99.90;;;;;;5054264;28;20502;-59
2023/03/20 05:50:47;;;;;;;19.30;10.32;;;7.40;99.90;;;;;;5055828;28;20182;-58
2023/03/20 05:53:12;;;;;;;20.40;10.63;;;7.30;99.90;;;;;;5055107;28;20277;-59
2023/03/20 05:55:38;;;;;;;21.60;12.35;;;7.20;99.90;;;;;;5054854;28;20178;-59
2023/03/20 05:58:05;;;;;;;23.17;12.07;;;7.30;99.90;;;;;;5054848;28;20180;-59
2023/03/20 06:00:30;;;;;;;17.65;9.93;;;7.30;99.90;;;;;;5055152;28;20185;-59
2023/03/20 06:02:56;;;;;;;18.52;9.70;;;7.30;99.90;;;;;;5055021;28;20537;-58
2023/03/20 06:05:22;;;;;;;22.10;11.80;;;7.30;99.90;;;;;;5054708;28;20175;-59
2023/03/20 06:07:47;;;;;;;19.85;11.05;;;7.40;99.90;;;;;;5054981;28;20690;-59
2023/03/20 06:10:13;;;;;;;22.40;10.40;;;7.40;99.90;;;;;;5055173;28;20671;-60
2023/03/20 06:12:39;;;;;;;18.73;12.13;;;7.40;99.90;;;;;;5055086;28;20539;-59
2023/03/20 06:15:05;;;;;;;17.48;11.85;;;7.40;99.90;;;;;;5054972;28;20179;-59
2023/03/20 06:17:31;;;;;;;16.83;11.25;;;7.40;99.90;;;;;;5054950;28;20182;-58
2023/03/20 06:19:56;;;;;;;19.52;11.02;;;7.50;99.90;;;;;;5054213;28;20528;-59
2023/03/20 06:22:22;;;;;;;19.27;12.30;;;7.60;99.90;;;;;;5054528;28;20532;-58
2023/03/20 06:24:47;;;;;;;20.20;11.77;;;7.60;99.90;;;;;;5054809;28;20309;-58
2023/03/20 06:27:13;;;;;;;20.20;10.98;;;7.60;99.90;;;;;;5054681;28;20213;-60
2023/03/20 06:29:39;;;;;;;17.23;12.02;;;7.60;99.90;;;;;;5054586;28;20170;-59
2023/03/20 06:32:09;;;;;;;21.30;12.38;;;7.60;99.90;;;;;;5054517;28;20305;-58
2023/03/20 06:34:35;;;;;;;24.10;12.20;;;7.60;99.90;;;;;;5054655;28;20179;-59
2023/03/20 06:37:01;;;;;;;21.52;12.23;;;7.60;99.90;;;;;;5054497;28;20659;-59
2023/03/20 06:39:27;;;;;;;24.90;13.27;;;7.70;99.90;;;;;;5054584;28;20626;-59
2023/03/20 06:41:53;;;;;;;21.52;11.85;;;7.60;99.90;;;;;;5054355;28;20186;-59
2023/03/20 06:44:19;;;;;;;18.88;12.93;;;7.60;99.90;;;;;;5054676;28;20181;-58
2023/03/20 06:46:45;;;;;;;21.67;13.13;;;7.70;99.90;;;;;;5054239;28;20206;-58
2023/03/20 06:49:10;;;;;;;18.67;12.90;;;7.80;99.90;;;;;;5054409;28;20179;-58
2023/03/20 06:51:36;;;;;;;24.67;14.15;;;7.70;99.90;;;;;;5053968;28;20198;-60
2023/03/20 06:54:02;;;;;;;23.30;12.27;;;7.70;99.90;;;;;;5054355;28;20648;-59
2023/03/20 06:56:27;;;;;;;21.30;13.25;;;7.80;99.90;;;;;;5054167;28;20632;-58
2023/03/20 06:58:53;;;;;;;20.27;13.95;;;7.80;99.90;;;;;;5054094;28;20175;-58
2023/03/20 07:01:19;;;;;;;25.08;14.90;;;7.90;99.90;;;;;;5053954;28;20176;-59
2023/03/20 07:03:45;;;;;;;21.98;13.15;;;8.00;99.90;;;;;;5054120;28;20222;-59
2023/03/20 07:06:12;;;;;;;18.40;12.80;;;8.10;99.90;;;;;;5053818;28;20725;-59
2023/03/20 07:08:38;;;;;;;23.77;13.63;;;8.10;99.90;;;;;;5053926;28;20671;-59
2023/03/20 07:11:05;;;;;;;22.13;12.63;;;8.10;99.90;;;;;;5053740;28;20640;-59
2023/03/20 07:13:32;;;;;;;21.60;12.63;;;8.20;99.90;;;;;;5053751;28;20175;-58
2023/03/20 07:16:00;;;;;;;19.80;11.90;;;8.20;99.90;;;;;;5053640;28;20182;-58
2023/03/20 07:18:26;;;;;;;18.83;11.70;;;8.20;99.90;;;;;;5053824;28;20250;-59
2023/03/20 07:20:52;;;;;;;19.58;11.88;;;8.20;99.90;;;;;;5054077;28;20198;-59
2023/03/20 07:23:18;;;;;;;15.63;11.38;;;8.30;99.90;;;;;;5053557;28;20686;-58
2023/03/20 07:25:44;;;;;;;20.38;11.43;;;8.30;99.90;;;;;;5053608;28;20179;-59
2023/03/20 07:28:10;;;;;;;19.83;10.73;;;8.30;99.90;;;;;;5053346;28;20306;-59
2023/03/20 07:30:36;;;;;;;18.13;10.98;;;8.30;99.90;;;;;;5053300;28;20262;-59
2023/03/20 07:33:02;;;;;;;16.40;10.02;;;8.40;99.90;;;;;;5053621;28;20282;-59
2023/03/20 07:35:27;;;;;;;17.55;9.60;;;8.40;99.90;;;;;;5053558;28;20179;-59
2023/03/20 07:37:53;;;;;;;18.23;10.25;;;8.40;99.90;;;;;;5053573;28;20180;-59
2023/03/20 07:40:19;;;;;;;17.90;9.55;;;8.40;99.90;;;;;;5053480;28;20510;-58
2023/03/20 07:42:46;;;;;;;18.88;9.98;;;8.50;99.90;;;;;;5053266;28;20654;-59
2023/03/20 07:45:13;;;;;;;16.65;8.55;;;8.50;99.90;;;;;;5053240;28;20381;-59
2023/03/20 07:47:39;;;;;;;16.15;8.70;;;8.50;99.90;;;;;;5053204;28;20668;-59
2023/03/20 07:50:05;;;;;;;15.20;8.43;;;8.40;99.90;;;;;;5053338;28;20537;-59
2023/03/20 07:52:30;;;;;;;18.63;9.15;;;8.50;99.90;;;;;;5053284;28;20258;-59
2023/03/20 07:54:56;;;;;;;18.00;8.52;;;8.40;99.90;;;;;;5053210;28;20214;-59
2023/03/20 07:57:22;;;;;;;17.15;8.45;;;8.40;99.90;;;;;;5053065;28;20186;-59
2023/03/20 07:59:47;;;;;;;15.50;8.05;;;8.50;99.90;;;;;;5053055;28;20271;-58
2023/03/20 08:02:15;;;;;;;13.98;8.05;;;8.50;99.90;;;;;;5053050;28;20182;-58
2023/03/20 08:04:41;;;;;;;15.93;8.13;;;8.50;99.90;;;;;;5053087;28;20171;-58
2023/03/20 08:07:07;;;;;;;16.45;8.68;;;8.60;99.90;;;;;;5053061;28;20257;-59
2023/03/20 08:09:33;;;;;;;15.65;8.05;;;8.70;99.90;;;;;;5053084;28;20266;-58
2023/03/20 08:11:58;;;;;;;15.25;8.13;;;8.70;99.90;;;;;;5052997;28;20171;-59
2023/03/20 08:14:24;;;;;;;14.65;8.20;;;8.80;99.90;;;;;;5052862;28;20567;-59
2023/03/20 08:16:50;;;;;;;18.85;8.30;;;8.80;99.90;;;;;;5053113;28;20171;-59
2023/03/20 08:19:15;;;;;;;16.35;8.63;;;8.90;99.90;;;;;;5053041;28;20176;-59
2023/03/20 08:21:44;;;;;;;17.20;8.15;;;9.00;99.90;;;;;;5053030;28;20223;-59
2023/03/20 08:24:10;;;;;;;16.23;7.78;;;9.00;99.90;;;;;;5052698;28;20231;-58
2023/03/20 08:26:36;;;;;;;16.45;7.30;;;9.00;99.90;;;;;;5052636;28;20206;-59
2023/03/20 08:29:02;;;;;;;14.70;7.50;;;9.00;99.90;;;;;;5052724;28;20187;-59
2023/03/20 08:31:28;;;;;;;13.60;6.63;;;9.10;99.90;;;;;;5052976;28;20175;-59
2023/03/20 08:33:55;;;;;;;14.27;6.95;;;9.00;99.90;;;;;;5052919;28;20176;-58
2023/03/20 08:36:21;;;;;;;13.35;6.70;;;9.00;99.90;;;;;;5052826;28;20187;-59
2023/03/20 08:38:48;;;;;;;14.10;6.82;;;9.10;99.90;;;;;;5052745;28;20179;-59
2023/03/20 08:41:14;;;;;;;15.38;7.55;;;9.00;99.90;;;;;;5052730;28;20175;-59
2023/03/20 08:43:40;;;;;;;12.68;7.72;;;9.00;99.90;;;;;;5054792;28;20171;-59
2023/03/20 08:46:06;;;;;;;13.30;6.97;;;8.90;99.90;;;;;;5056776;28;20258;-58
2023/03/20 08:48:32;;;;;;;14.15;7.28;;;9.10;99.90;;;;;;5056674;28;20180;-59
2023/03/20 08:50:58;;;;;;;15.13;6.20;;;9.10;99.90;;;;;;5056567;28;20176;-59
2023/03/20 08:53:24;;;;;;;13.77;7.15;;;9.20;99.90;;;;;;5056601;28;20198;-59
2023/03/20 08:55:51;;;;;;;18.77;7.00;;;9.30;99.90;;;;;;5056448;28;20210;-59
2023/03/20 08:58:19;;;;;;;12.70;6.57;;;9.30;99.90;;;;;;5056790;28;20179;-59
2023/03/20 09:00:45;;;;;;;14.88;6.45;;;9.40;99.90;;;;;;5056510;28;20175;-59
2023/03/20 09:03:19;;;;;;;12.57;6.35;;;9.50;99.90;;;;;;5056361;28;20290;-59
2023/03/20 09:05:46;;;;;;;13.43;6.38;;;9.50;99.90;;;;;;5056345;28;20212;-59
2023/03/20 09:08:12;;;;;;;13.65;6.60;;;9.60;99.90;;;;;;5056254;28;20221;-59
2023/03/20 09:10:39;;;;;;;15.63;6.72;;;9.70;99.90;;;;;;5056051;28;20648;-59
2023/03/20 09:13:06;;;;;;;12.02;6.22;;;9.80;99.90;;;;;;5056011;28;20225;-59
2023/03/20 09:15:31;;;;;;;14.15;6.38;;;9.90;99.90;;;;;;5056029;28;20175;-59
2023/03/20 09:17:57;;;;;;;15.23;6.97;;;10.00;99.90;;;;;;5056092;28;20201;-59
2023/03/20 09:20:23;;;;;;;11.45;6.22;;;10.00;99.90;;;;;;5056001;28;20230;-59
2023/03/20 09:22:49;;;;;;;13.10;6.60;;;10.10;99.90;;;;;;5055751;28;20246;-59
2023/03/20 09:25:14;;;;;;;16.65;6.40;;;10.20;99.90;;;;;;5055863;28;20183;-59
2023/03/20 09:27:40;;;;;;;13.73;6.35;;;10.30;99.90;;;;;;5055882;28;20203;-59
2023/03/20 09:30:07;;;;;;;14.70;6.65;;;10.40;99.90;;;;;;5055682;28;20180;-59
2023/03/20 09:32:34;;;;;;;14.20;6.15;;;10.40;99.90;;;;;;5055910;28;20182;-59
2023/03/20 09:35:00;;;;;;;13.07;5.82;;;10.50;99.90;;;;;;5055775;28;20510;-59
2023/03/20 09:37:26;;;;;;;13.05;6.00;;;10.60;99.90;;;;;;5055661;28;20175;-59
2023/03/20 09:39:52;;;;;;;12.02;6.05;;;10.70;99.90;;;;;;5055545;28;20369;-59
2023/03/20 09:42:18;;;;;;;9.75;5.60;;;10.70;99.90;;;;;;5055822;28;20207;-59
2023/03/20 09:44:58;;;;;;;12.82;5.32;;;10.60;99.90;;;;;;5055621;28;20179;-59
2023/03/20 09:47:51;;;;;;;12.93;6.32;;;10.70;99.90;;;;;;5055403;28;20248;-60
2023/03/20 09:50:21;;;;;;;13.35;5.82;;;10.80;99.90;;;;;;5055331;28;20248;-59
2023/03/20 09:52:58;;;;;;;11.38;5.78;;;11.00;99.90;;;;;;5055302;28;20218;-59
2023/03/20 09:55:32;;;;;;;15.98;5.90;;;11.00;99.90;;;;;;5054697;28;20210;-58
2023/03/20 09:58:10;;;;;;;13.50;5.90;;;11.10;99.90;;;;;;5054900;28;20218;-58
2023/03/20 10:00:38;;;;;;;11.20;6.15;;;11.00;99.90;;;;;;5054620;28;20182;-59
2023/03/20 10:03:26;;;;;;;13.45;6.05;;;11.10;99.90;;;;;;5054752;28;20524;-59
2023/03/20 10:06:03;;;;;;;12.93;5.68;;;11.00;99.90;;;;;;5054237;28;20190;-58
2023/03/20 10:08:32;;;;;;;13.63;6.03;;;11.00;99.90;;;;;;5054527;28;20191;-59
2023/03/20 10:11:01;;;;;;;13.63;5.45;;;11.00;99.90;;;;;;5054424;28;20266;-59
2023/03/20 10:13:35;;;;;;;12.77;5.70;;;11.00;99.90;;;;;;5054268;28;20175;-59
2023/03/20 10:16:37;;;;;;;16.52;6.40;;;11.10;99.90;;;;;;5054610;28;20201;-59
2023/03/20 10:19:20;;;;;;;19.00;7.00;;;10.90;99.90;;;;;;5054330;28;20214;-59
2023/03/20 10:22:00;;;;;;;13.05;5.28;;;10.90;99.90;;;;;;5054444;28;20167;-59
2023/03/20 10:24:34;;;;;;;14.63;6.15;;;10.80;99.90;;;;;;5054146;28;20229;-59
2023/03/20 10:27:19;;;;;;;17.38;6.30;;;10.90;99.90;;;;;;5054290;28;20575;-60
2023/03/20 10:30:14;;;;;;;14.52;5.65;;;10.70;99.90;;;;;;5054156;28;20171;-59
2023/03/20 10:33:10;;;;;;;11.52;5.68;;;10.60;99.90;;;;;;5046494;28;20579;-59
2023/03/20 10:35:53;;;;;;;14.65;6.18;;;10.50;99.90;;;;;;5054001;28;20609;-58
2023/03/20 10:38:40;;;;;;;13.32;5.95;;;10.50;99.90;;;;;;5054024;28;20207;-59
2023/03/20 10:41:22;;;;;;;22.02;6.25;;;10.70;99.90;;;;;;5053975;28;20171;-59
2023/03/20 10:43:50;;;;;;;15.38;6.68;;;10.90;99.90;;;;;;5053914;28;20655;-59
2023/03/20 10:46:22;;;;;;;14.57;6.00;;;11.00;99.90;;;;;;5053803;28;20218;-59
2023/03/20 10:48:51;;;;;;;14.77;6.35;;;11.20;99.90;;;;;;5053911;28;20175;-60
2023/03/20 10:51:23;;;;;;;16.58;6.38;;;11.20;99.90;;;;;;5053964;28;20498;-59
2023/03/20 10:53:54;;;;;;;13.88;5.70;;;11.30;99.90;;;;;;5053778;28;20225;-59
2023/03/20 10:56:35;;;;;;;12.85;6.20;;;11.50;99.90;;;;;;5053755;28;20206;-59
2023/03/20 10:59:10;;;;;;;12.90;6.30;;;11.60;99.90;;;;;;5053538;28;20581;-59
2023/03/20 11:01:36;;;;;;;11.82;6.15;;;11.80;99.90;;;;;;5053871;28;20171;-58
2023/03/20 11:04:02;;;;;;;12.88;6.07;;;12.10;99.90;;;;;;5053620;28;20183;-58
2023/03/20 11:06:32;;;;;;;10.70;5.40;;;12.20;99.90;;;;;;5052958;28;20207;-59
2023/03/20 11:09:28;;;;;;;11.10;5.82;;;12.40;99.90;;;;;;5053515;28;20220;-59
2023/03/20 11:11:57;;;;;;;14.55;5.38;;;12.60;99.90;;;;;;5053540;28;20171;-59
2023/03/20 11:14:26;;;;;;;13.02;5.40;;;12.60;99.90;;;;;;5053348;28;20194;-58
2023/03/20 11:16:54;;;;;;;14.43;5.70;;;12.50;99.90;;;;;;5053341;28;20183;-58
2023/03/20 11:19:22;;;;;;;16.98;5.97;;;12.80;99.90;;;;;;5053314;28;20171;-58
2023/03/20 11:21:54;;;;;;;12.38;5.45;;;12.90;99.90;;;;;;5053269;28;20320;-59
2023/03/20 11:24:25;;;;;;;11.88;5.40;;;13.10;99.90;;;;;;5052891;28;20227;-59
2023/03/20 11:26:52;;;;;;;15.48;5.38;;;13.10;99.90;;;;;;5053223;28;20203;-59
2023/03/20 11:29:33;;;;;;;12.60;5.38;;;13.40;99.90;;;;;;5053119;28;20209;-59
2023/03/20 11:32:16;;;;;;;15.43;5.53;;;13.60;99.90;;;;;;5053194;28;20236;-59
2023/03/20 11:34:42;;;;;;;9.88;5.13;;;13.70;99.90;;;;;;5053063;28;20179;-59
2023/03/20 11:37:32;;;;;;;13.25;5.40;;;13.90;99.90;;;;;;5053032;28;20700;-59
2023/03/20 11:40:20;;;;;;;13.85;5.60;;;13.80;99.90;;;;;;5053190;28;20655;-59
2023/03/20 11:43:02;;;;;;;12.13;5.60;;;13.50;99.90;;;;;;5052840;28;20195;-59
2023/03/20 11:45:37;;;;;;;14.82;5.28;;;13.30;99.90;;;;;;5052861;28;20531;-59
2023/03/20 11:48:05;;;;;;;16.58;5.53;;;13.30;99.90;;;;;;5052809;28;20297;-59
2023/03/20 11:50:37;;;;;;;11.00;5.40;;;13.30;99.90;;;;;;5052790;28;20220;-59
2023/03/20 11:53:29;;;;;;;14.05;5.93;;;13.20;99.90;;;;;;5051396;28;20171;-59
2023/03/20 11:56:13;;;;;;;12.57;5.38;;;13.10;99.90;;;;;;5052818;28;20179;-59
2023/03/20 11:58:57;;;;;;;14.98;5.90;;;12.90;99.90;;;;;;5052711;28;20178;-59
2023/03/20 12:01:23;;;;;;;12.63;5.43;;;12.80;99.90;;;;;;5051230;28;20540;-58
2023/03/20 12:04:10;;;;;;;15.15;5.40;;;12.90;99.90;;;;;;5052504;28;20594;-59
2023/03/20 12:06:55;;;;;;;11.73;5.55;;;12.80;99.90;;;;;;5052553;28;20261;-58
2023/03/20 12:09:20;;;;;;;11.75;5.35;;;12.80;99.90;;;;;;5052600;28;20171;-58
2023/03/20 12:12:04;;;;;;;13.30;5.60;;;12.90;99.90;;;;;;5052422;28;20628;-58
2023/03/20 12:15:04;;;;;;;11.18;5.30;;;13.10;99.90;;;;;;5052628;28;20186;-59
2023/03/20 12:17:45;;;;;;;15.02;5.53;;;13.10;99.90;;;;;;5036273;28;20364;-58
2023/03/20 12:20:40;;;;;;;12.93;5.57;;;13.20;99.90;;;;;;5056536;28;20258;-58
2023/03/20 12:23:09;;;;;;;12.05;5.18;;;13.20;99.90;;;;;;5052403;28;20234;-59
2023/03/20 12:25:40;;;;;;;28.10;7.50;;;12.90;99.90;;;;;;5056576;28;20278;-58
2023/03/20 12:28:31;;;;;;;14.15;5.75;;;13.00;99.90;;;;;;5056483;28;20210;-59
2023/03/20 12:31:09;;;;;;;19.88;6.25;;;13.00;99.90;;;;;;5056384;28;20183;-58
2023/03/20 12:33:59;;;;;;;14.13;5.90;;;13.10;99.90;;;;;;5056494;28;20167;-58
2023/03/20 12:36:34;;;;;;;14.18;5.70;;;13.20;99.90;;;;;;5056491;28;20179;-59
2023/03/20 12:39:05;;;;;;;13.00;5.15;;;13.10;99.90;;;;;;5056258;28;20620;-59
2023/03/20 12:41:40;;;;;;;12.05;4.97;;;12.90;99.90;;;;;;5056251;28;20198;-59
2023/03/20 12:44:33;;;;;;;13.38;5.68;;;12.90;99.90;;;;;;5056422;28;20183;-59
2023/03/20 12:47:41;;;;;;;11.60;5.90;;;13.00;99.90;;;;;;5056178;28;20202;-58
2023/03/20 12:50:15;;;;;;;16.88;5.80;;;13.00;99.90;;;;;;5055590;28;20195;-59
2023/03/20 12:52:47;;;;;;;16.30;5.65;;;12.90;99.90;;;;;;5056101;28;20221;-59
2023/03/20 12:55:31;;;;;;;16.38;6.75;;;12.80;99.90;;;;;;5055958;28;20178;-59
2023/03/20 12:58:17;;;;;;;12.90;5.80;;;12.60;99.90;;;;;;5055837;28;20181;-59